createdAt,value
2023-04-23T00:03:10.460Z,100150.28
2023-04-23T00:08:14.375Z,100150.38
2023-04-23T00:13:17.513Z,100141.56
2023-04-23T00:18:21.617Z,100148.34
2023-04-23T00:23:24.342Z,100132.56
2023-04-23T00:28:27.130Z,100129.81
2023-04-23T00:33:31.547Z,100143.31
2023-04-23T00:38:34.281Z,100131.13
2023-04-23T00:43:37.518Z,100130.22
2023-04-23T00:48:42.839Z,100127.00
2023-04-23T00:53:45.584Z,100115.03
2023-04-23T00:58:48.485Z,100120.53
2023-04-23T01:03:54.352Z,100116.66
2023-04-23T01:08:57.367Z,100116.47
2023-04-23T01:14:00.457Z,100109.56
2023-04-23T01:19:05.659Z,100109.75
2023-04-23T01:24:10.971Z,100111.47
2023-04-23T01:29:14.865Z,100110.66
2023-04-23T01:34:18.279Z,100112.34
2023-04-23T01:39:22.527Z,100113.53
2023-04-23T01:44:26.233Z,100120.06
2023-04-23T01:49:29.113Z,100116.50
2023-04-23T01:54:33.234Z,100145.31
2023-04-23T01:59:36.467Z,100161.00
2023-04-23T02:04:40.406Z,100172.34
2023-04-23T02:09:44.611Z,100170.66
2023-04-23T02:14:47.359Z,100180.13
2023-04-23T02:19:50.506Z,100191.31
2023-04-23T02:24:55.496Z,100186.56
2023-04-23T02:30:00.246Z,100189.50
2023-04-23T02:35:03.502Z,100189.22
2023-04-23T02:40:09.137Z,100196.63
2023-04-23T02:45:12.483Z,100199.81
2023-04-23T02:50:15.264Z,100196.84
2023-04-23T02:55:19.559Z,100205.16
2023-04-23T03:00:22.633Z,100216.66
2023-04-23T03:05:25.567Z,100215.28
2023-04-23T03:10:30.055Z,100215.97
2023-04-23T03:15:32.806Z,100215.97
2023-04-23T03:20:35.747Z,100223.38
2023-04-23T03:25:40.050Z,100224.59
2023-04-23T03:30:43.293Z,100242.50
2023-04-23T03:35:46.316Z,100236.91
2023-04-23T03:40:55.957Z,100239.47
2023-04-23T03:45:59.329Z,100246.72
2023-04-23T03:51:03.196Z,100244.06
2023-04-23T03:56:19.362Z,100244.31
2023-04-23T04:01:32.588Z,100239.91
2023-04-23T04:06:35.508Z,100250.28
2023-04-23T04:11:39.565Z,100253.06
2023-04-23T04:16:42.378Z,100268.44
2023-04-23T04:21:45.151Z,100258.59
2023-04-23T04:26:50.417Z,100264.06
2023-04-23T04:31:53.279Z,100256.34
2023-04-23T04:36:56.062Z,100263.75
2023-04-23T04:42:02.896Z,100264.03
2023-04-23T04:47:06.650Z,100257.28
2023-04-23T04:52:09.599Z,100275.69
2023-04-23T04:57:13.762Z,100282.81
2023-04-23T05:02:16.843Z,100293.22
2023-04-23T05:07:19.743Z,100295.34
2023-04-23T05:12:23.869Z,100304.81
2023-04-23T05:17:26.765Z,100309.50
2023-04-23T05:22:29.777Z,100313.72
2023-04-23T05:27:33.860Z,100314.34
2023-04-23T05:32:36.780Z,100316.56
2023-04-23T05:37:39.754Z,100326.28
2023-04-23T05:42:43.873Z,100324.75
2023-04-23T05:47:48.647Z,100329.34
2023-04-23T05:52:51.394Z,100334.66
2023-04-23T05:57:55.557Z,100338.00
2023-04-23T06:02:58.500Z,100339.94
2023-04-23T06:08:01.357Z,100346.31
2023-04-23T06:13:05.885Z,100339.13
2023-04-23T06:18:10.373Z,100334.91
2023-04-23T06:23:14.000Z,100321.16
2023-04-23T06:28:18.095Z,100331.16
2023-04-23T06:33:40.977Z,100329.81
2023-04-23T06:38:44.611Z,100327.19
2023-04-23T06:43:49.063Z,100325.56
2023-04-23T06:49:06.839Z,100325.63
2023-04-23T06:54:09.948Z,100329.94
2023-04-23T06:59:14.100Z,100326.28
2023-04-23T07:04:23.150Z,100327.91
2023-04-23T07:09:26.229Z,100335.09
2023-04-23T07:14:30.400Z,100338.09
2023-04-23T07:19:33.184Z,100336.44
2023-04-23T07:24:36.246Z,100337.09
2023-04-23T07:29:40.483Z,100333.16
2023-04-23T07:34:43.975Z,100328.50
2023-04-23T07:39:47.536Z,100311.84
2023-04-23T07:44:51.906Z,100322.28
2023-04-23T07:49:54.658Z,100316.63
2023-04-23T07:54:57.455Z,100316.81
2023-04-23T08:00:01.556Z,100315.63
2023-04-23T08:05:14.877Z,100312.03
2023-04-23T08:10:17.876Z,100314.78
2023-04-23T08:15:22.066Z,100307.63
2023-04-23T08:20:24.860Z,100300.66
2023-04-23T08:25:27.710Z,100298.19
2023-04-23T08:30:31.885Z,100293.06
2023-04-23T08:35:34.678Z,100295.44
2023-04-23T08:40:38.669Z,100294.47
2023-04-23T08:45:47.531Z,100297.56
2023-04-23T08:50:50.844Z,100294.84
2023-04-23T08:55:53.822Z,100305.38
2023-04-23T09:00:59.746Z,100286.47
2023-04-23T09:06:03.048Z,100289.63
2023-04-23T09:11:07.098Z,100291.16
2023-04-23T09:16:11.664Z,100287.59
2023-04-23T09:21:15.207Z,100277.22
2023-04-23T09:26:22.127Z,100270.47
2023-04-23T09:31:26.460Z,100263.44
2023-04-23T09:36:29.671Z,100263.84
2023-04-23T09:41:32.411Z,100253.28
2023-04-23T09:46:38.567Z,100261.97
2023-04-23T09:51:42.587Z,100263.22
2023-04-23T09:56:51.276Z,100258.19
2023-04-23T10:01:55.973Z,100257.56
2023-04-23T10:07:17.361Z,100253.97
2023-04-23T10:12:40.973Z,100253.31
2023-04-23T10:17:48.199Z,100238.22
2023-04-23T10:22:53.307Z,100241.50
2023-04-23T10:27:56.945Z,100240.16
2023-04-23T10:33:02.872Z,100242.25
2023-04-23T10:38:06.173Z,100244.25
2023-04-23T10:43:09.039Z,100243.28
2023-04-23T10:48:13.093Z,100225.63
2023-04-23T10:53:22.406Z,100216.22
2023-04-23T10:58:25.232Z,100207.53
2023-04-23T11:03:43.379Z,100219.97
2023-04-23T11:08:52.756Z,100218.22
2023-04-23T11:13:55.288Z,100217.34
2023-04-23T11:19:05.294Z,100213.94
2023-04-23T11:24:08.484Z,100209.66
2023-04-23T11:29:15.552Z,100214.06
2023-04-23T11:34:19.702Z,100211.88
2023-04-23T11:39:24.680Z,100186.47
2023-04-23T11:44:28.133Z,100182.13
2023-04-23T11:49:32.430Z,100181.84
2023-04-23T11:54:36.964Z,100168.16
2023-04-23T11:59:39.980Z,100165.28
2023-04-23T12:04:45.049Z,100170.72
2023-04-23T12:09:47.769Z,100160.56
2023-04-23T12:14:50.661Z,100163.13
2023-04-23T12:19:56.206Z,100164.38
2023-04-23T12:25:00.193Z,100154.72
2023-04-23T12:30:06.369Z,100157.88
2023-04-23T12:35:12.247Z,100152.63
2023-04-23T12:40:15.132Z,100142.16
2023-04-23T12:45:17.886Z,100141.44
2023-04-23T12:50:22.038Z,100135.41
2023-04-23T12:55:24.989Z,100141.53
2023-04-23T13:00:28.054Z,100142.66
2023-04-23T13:05:32.336Z,100141.06
2023-04-23T13:10:35.158Z,100134.81
2023-04-23T13:15:38.009Z,100132.84
2023-04-23T13:20:43.135Z,100123.50
2023-04-23T13:25:45.927Z,100115.97
2023-04-23T13:30:48.883Z,100119.13
2023-04-23T13:35:54.530Z,100103.63
2023-04-23T13:40:57.484Z,100095.28
2023-04-23T13:46:01.194Z,100082.84
2023-04-23T13:51:11.404Z,100074.94
2023-04-23T13:56:16.539Z,100062.47
2023-04-23T14:01:19.345Z,100048.13
2023-04-23T14:06:23.656Z,100040.44
2023-04-23T14:11:26.477Z,100044.13
2023-04-23T14:16:29.380Z,100046.75
2023-04-23T14:21:33.738Z,100052.59
2023-04-23T14:26:48.154Z,100111.06
2023-04-23T14:31:52.615Z,100143.84
2023-04-23T14:36:56.960Z,100148.22
2023-04-23T14:41:59.735Z,100131.19
2023-04-23T14:47:02.496Z,100082.25
2023-04-23T14:52:06.738Z,100085.03
2023-04-23T14:57:09.523Z,100070.88
2023-04-23T15:02:12.585Z,100061.53
2023-04-23T15:07:16.767Z,100047.75
2023-04-23T15:12:42.755Z,100037.13
2023-04-23T15:17:45.606Z,100037.19
2023-04-23T15:22:49.925Z,100024.47
2023-04-23T15:27:57.798Z,100019.03
2023-04-23T15:33:00.654Z,100001.31
2023-04-23T15:38:05.056Z,100012.38
2023-04-23T15:43:07.816Z,100006.75
2023-04-23T15:48:11.064Z,100001.97
2023-04-23T15:53:16.315Z,100000.31
2023-04-23T15:58:19.701Z,99999.41
2023-04-23T16:03:22.711Z,99988.34
2023-04-23T16:08:26.857Z,99991.19
2023-04-23T16:13:29.899Z,99995.56
2023-04-23T16:18:32.730Z,100021.22
2023-04-23T16:23:37.033Z,100027.69
2023-04-23T16:28:39.764Z,100019.34
2023-04-23T16:33:42.529Z,100003.00
2023-04-23T16:38:49.487Z,99994.94
2023-04-23T16:43:52.431Z,99976.28
2023-04-23T16:48:55.182Z,99967.44
2023-04-23T16:53:59.492Z,99966.63
2023-04-23T16:59:02.257Z,99951.94
2023-04-23T17:04:05.305Z,99951.75
2023-04-23T17:09:10.363Z,99956.81
2023-04-23T17:14:13.264Z,99962.63
2023-04-23T17:19:16.113Z,99962.31
2023-04-23T17:24:20.379Z,99960.16
2023-04-23T17:29:23.184Z,99966.09
2023-04-23T17:34:26.036Z,99963.38
2023-04-23T17:39:30.177Z,99956.44
2023-04-23T17:44:33.066Z,99954.00
2023-04-23T17:49:36.060Z,99949.25
2023-04-23T17:54:40.876Z,99941.75
2023-04-23T17:59:43.987Z,99936.78
2023-04-23T18:04:47.011Z,99931.19
2023-04-23T18:09:51.173Z,99936.66
2023-04-23T18:14:54.626Z,99921.75
2023-04-23T18:19:57.561Z,99927.03
2023-04-23T18:25:01.772Z,99925.09
2023-04-23T18:30:05.665Z,99929.03
2023-04-23T18:35:09.347Z,99921.78
2023-04-23T18:40:13.589Z,99926.97
2023-04-23T18:45:19.082Z,99930.94
2023-04-23T18:50:36.917Z,99929.06
2023-04-23T18:55:41.085Z,99927.47
2023-04-23T19:00:43.905Z,99920.06
2023-04-23T19:05:47.072Z,99910.50
2023-04-23T19:10:51.255Z,99906.47
2023-04-23T19:15:54.208Z,99909.66
2023-04-23T19:20:58.168Z,99911.78
2023-04-23T19:26:03.203Z,99914.59
2023-04-23T19:31:06.166Z,99905.16
2023-04-23T19:36:09.034Z,99898.25
2023-04-23T19:41:13.204Z,99884.63
2023-04-23T19:46:15.974Z,99879.22
2023-04-23T19:51:20.664Z,99877.00
2023-04-23T19:56:25.116Z,99858.69
2023-04-23T20:01:30.084Z,99854.25
2023-04-23T20:06:33.081Z,99854.16
2023-04-23T20:11:37.522Z,99851.84
2023-04-23T20:16:40.841Z,99844.75
2023-04-23T20:21:45.635Z,99840.00
2023-04-23T20:26:50.810Z,99827.25
2023-04-23T20:31:53.706Z,99829.78
2023-04-23T20:36:58.714Z,99836.97
2023-04-23T20:42:02.876Z,99828.84
2023-04-23T20:47:08.414Z,99823.69
2023-04-23T20:52:12.306Z,99806.97
2023-04-23T20:57:16.372Z,99799.75
2023-04-23T21:02:19.302Z,99785.91
2023-04-23T21:12:26.324Z,99750.59
2023-04-23T21:17:29.155Z,99750.38
2023-04-23T21:22:32.444Z,99741.81
2023-04-23T21:27:36.848Z,99727.09
2023-04-23T21:32:39.718Z,99731.94
2023-04-23T21:37:42.434Z,99728.38
2023-04-23T21:42:47.622Z,99724.81
2023-04-23T21:47:51.004Z,99713.25
2023-04-23T21:52:55.977Z,99706.44
2023-04-23T21:58:13.880Z,99704.81
2023-04-23T22:03:30.900Z,99701.41
2023-04-23T22:08:41.822Z,99701.59
2023-04-23T22:13:46.009Z,99708.22
2023-04-23T22:18:49.198Z,99701.91
2023-04-23T22:23:51.957Z,99698.72
2023-04-23T22:28:56.350Z,99673.53
2023-04-23T22:33:59.130Z,99657.56
2023-04-23T22:39:02.291Z,99651.22
2023-04-23T22:44:06.482Z,99645.16
2023-04-23T22:49:11.074Z,99639.63
2023-04-23T22:54:13.809Z,99638.16
2023-04-23T22:59:17.892Z,99630.03
2023-04-23T23:04:21.145Z,99619.63
2023-04-23T23:09:24.031Z,99610.94
2023-04-23T23:14:28.929Z,99622.16
2023-04-23T23:19:31.900Z,99628.81
2023-04-23T23:24:34.741Z,99647.59
2023-04-23T23:29:38.877Z,99639.44
2023-04-23T23:34:41.660Z,99644.16
2023-04-23T23:39:44.667Z,99640.69
2023-04-23T23:44:48.829Z,99629.72
2023-04-23T23:49:51.664Z,99617.84
2023-04-23T23:54:54.346Z,99611.06
2023-04-23T23:59:58.654Z,99619.03
